sensor_id;sensor_type;location;lat;lon;timestamp;temperature;humidity
21823;DHT22;11074;48.596;9.238;2023-05-20T00:02:05;12.40;99.90
21823;DHT22;11074;48.596;9.238;2023-05-20T00:04:31;12.50;99.90
21823;DHT22;11074;48.596;9.238;2023-05-20T00:06:56;12.50;99.90
21823;DHT22;11074;48.596;9.238;2023-05-20T00:09:22;12.50;99.90
21823;DHT22;11074;48.596;9.238;2023-05-20T00:11:48;12.50;99.90
21823;DHT22;11074;48.596;9.238;2023-05-20T00:14:13;12.40;99.90
21823;DHT22;11074;48.596;9.238;2023-05-20T00:16:40;12.40;99.90
21823;DHT22;11074;48.596;9.238;2023-05-20T00:19:06;12.40;99.90
21823;DHT22;11074;48.596;9.238;2023-05-20T00:21:31;12.40;99.90
21823;DHT22;11074;48.596;9.238;2023-05-20T00:23:58;12.30;99.90
21823;DHT22;11074;48.596;9.238;2023-05-20T00:26:24;12.30;99.90
21823;DHT22;11074;48.596;9.238;2023-05-20T00:28:50;12.30;99.90
21823;DHT22;11074;48.596;9.238;2023-05-20T00:31:16;12.40;99.90
21823;DHT22;11074;48.596;9.238;2023-05-20T00:33:42;12.40;99.90
21823;DHT22;11074;48.596;9.238;2023-05-20T00:36:07;12.50;99.90
21823;DHT22;11074;48.596;9.238;2023-05-20T00:38:33;12.50;99.90
21823;DHT22;11074;48.596;9.238;2023-05-20T00:40:59;12.50;99.90
21823;DHT22;11074;48.596;9.238;2023-05-20T00:43:25;12.50;99.90
21823;DHT22;11074;48.596;9.238;2023-05-20T00:45:54;12.40;99.90
21823;DHT22;11074;48.596;9.238;2023-05-20T00:48:21;12.50;99.90
21823;DHT22;11074;48.596;9.238;2023-05-20T00:50:48;12.50;99.90
21823;DHT22;11074;48.596;9.238;2023-05-20T00:53:16;12.50;99.90
21823;DHT22;11074;48.596;9.238;2023-05-20T00:55:45;12.50;99.90
21823;DHT22;11074;48.596;9.238;2023-05-20T00:58:11;12.50;99.90
21823;DHT22;11074;48.596;9.238;2023-05-20T01:00:38;12.50;99.90
21823;DHT22;11074;48.596;9.238;2023-05-20T01:03:03;12.50;99.90
21823;DHT22;11074;48.596;9.238;2023-05-20T01:05:30;12.50;99.90
21823;DHT22;11074;48.596;9.238;2023-05-20T01:07:56;12.50;99.90
21823;DHT22;11074;48.596;9.238;2023-05-20T01:10:23;12.50;99.90
21823;DHT22;11074;48.596;9.238;2023-05-20T01:12:55;12.50;99.90
21823;DHT22;11074;48.596;9.238;2023-05-20T01:15:26;12.40;99.90
21823;DHT22;11074;48.596;9.238;2023-05-20T01:17:57;12.40;99.90
21823;DHT22;11074;48.596;9.238;2023-05-20T01:20:27;12.40;99.90
21823;DHT22;11074;48.596;9.238;2023-05-20T01:22:58;12.40;99.90
21823;DHT22;11074;48.596;9.238;2023-05-20T01:25:24;12.40;99.90
21823;DHT22;11074;48.596;9.238;2023-05-20T01:27:51;12.40;99.90
21823;DHT22;11074;48.596;9.238;2023-05-20T01:30:19;12.30;99.90
21823;DHT22;11074;48.596;9.238;2023-05-20T01:32:53;12.30;99.90
21823;DHT22;11074;48.596;9.238;2023-05-20T01:35:22;12.30;99.90
21823;DHT22;11074;48.596;9.238;2023-05-20T01:37:49;12.30;99.90
21823;DHT22;11074;48.596;9.238;2023-05-20T01:40:17;12.30;99.90
21823;DHT22;11074;48.596;9.238;2023-05-20T01:42:44;12.30;99.90
21823;DHT22;11074;48.596;9.238;2023-05-20T01:45:11;12.30;99.90
21823;DHT22;11074;48.596;9.238;2023-05-20T01:47:37;12.30;99.90
21823;DHT22;11074;48.596;9.238;2023-05-20T01:50:02;12.30;99.90
21823;DHT22;11074;48.596;9.238;2023-05-20T01:52:28;12.20;99.90
21823;DHT22;11074;48.596;9.238;2023-05-20T01:54:55;12.20;99.90
21823;DHT22;11074;48.596;9.238;2023-05-20T01:57:22;12.20;99.90
21823;DHT22;11074;48.596;9.238;2023-05-20T01:59:48;12.20;99.90
21823;DHT22;11074;48.596;9.238;2023-05-20T02:02:14;12.20;99.90
21823;DHT22;11074;48.596;9.238;2023-05-20T02:04:43;12.20;99.90
21823;DHT22;11074;48.596;9.238;2023-05-20T02:07:14;12.10;99.90
21823;DHT22;11074;48.596;9.238;2023-05-20T02:09:40;12.10;99.90
21823;DHT22;11074;48.596;9.238;2023-05-20T02:12:07;12.10;99.90
21823;DHT22;11074;48.596;9.238;2023-05-20T02:14:33;12.00;99.90
21823;DHT22;11074;48.596;9.238;2023-05-20T02:16:59;12.00;99.90
21823;DHT22;11074;48.596;9.238;2023-05-20T02:19:24;11.90;99.90
21823;DHT22;11074;48.596;9.238;2023-05-20T02:21:50;11.90;99.90
21823;DHT22;11074;48.596;9.238;2023-05-20T02:24:16;11.80;99.90
21823;DHT22;11074;48.596;9.238;2023-05-20T02:26:42;11.80;99.90
21823;DHT22;11074;48.596;9.238;2023-05-20T02:29:10;11.80;99.90
21823;DHT22;11074;48.596;9.238;2023-05-20T02:31:35;11.70;99.90
21823;DHT22;11074;48.596;9.238;2023-05-20T02:34:01;11.70;99.90
21823;DHT22;11074;48.596;9.238;2023-05-20T02:36:27;11.60;99.90
21823;DHT22;11074;48.596;9.238;2023-05-20T02:38:53;11.60;99.90
21823;DHT22;11074;48.596;9.238;2023-05-20T02:41:21;11.60;99.90
21823;DHT22;11074;48.596;9.238;2023-05-20T02:43:47;11.60;99.90
21823;DHT22;11074;48.596;9.238;2023-05-20T02:46:13;11.60;99.90
21823;DHT22;11074;48.596;9.238;2023-05-20T02:48:40;11.60;99.90
21823;DHT22;11074;48.596;9.238;2023-05-20T02:51:05;11.50;99.90
21823;DHT22;11074;48.596;9.238;2023-05-20T02:53:31;11.60;99.90
21823;DHT22;11074;48.596;9.238;2023-05-20T02:55:57;11.60;99.90
21823;DHT22;11074;48.596;9.238;2023-05-20T02:58:22;11.60;99.90
21823;DHT22;11074;48.596;9.238;2023-05-20T03:00:51;11.70;99.90
21823;DHT22;11074;48.596;9.238;2023-05-20T03:03:17;11.60;99.90
21823;DHT22;11074;48.596;9.238;2023-05-20T03:05:43;11.60;99.90
21823;DHT22;11074;48.596;9.238;2023-05-20T03:08:10;11.60;99.90
21823;DHT22;11074;48.596;9.238;2023-05-20T03:10:37;11.60;99.90
21823;DHT22;11074;48.596;9.238;2023-05-20T03:13:04;11.50;99.90
21823;DHT22;11074;48.596;9.238;2023-05-20T03:15:36;11.40;99.90
21823;DHT22;11074;48.596;9.238;2023-05-20T03:18:03;11.40;99.90
21823;DHT22;11074;48.596;9.238;2023-05-20T03:20:29;11.40;99.90
21823;DHT22;11074;48.596;9.238;2023-05-20T03:22:57;11.30;99.90
21823;DHT22;11074;48.596;9.238;2023-05-20T03:25:23;11.30;99.90
21823;DHT22;11074;48.596;9.238;2023-05-20T03:27:50;11.30;99.90
21823;DHT22;11074;48.596;9.238;2023-05-20T03:30:16;11.30;99.90
21823;DHT22;11074;48.596;9.238;2023-05-20T03:32:42;11.30;99.90
21823;DHT22;11074;48.596;9.238;2023-05-20T03:35:07;11.20;99.90
21823;DHT22;11074;48.596;9.238;2023-05-20T03:37:34;11.20;99.90
21823;DHT22;11074;48.596;9.238;2023-05-20T03:40:01;11.20;99.90
21823;DHT22;11074;48.596;9.238;2023-05-20T03:42:27;11.20;99.90
21823;DHT22;11074;48.596;9.238;2023-05-20T03:44:52;11.20;99.90
21823;DHT22;11074;48.596;9.238;2023-05-20T03:47:18;11.20;99.90
21823;DHT22;11074;48.596;9.238;2023-05-20T03:49:44;11.30;99.90
21823;DHT22;11074;48.596;9.238;2023-05-20T03:52:09;11.30;99.90
21823;DHT22;11074;48.596;9.238;2023-05-20T03:54:35;11.40;99.90
21823;DHT22;11074;48.596;9.238;2023-05-20T03:57:01;11.40;99.90
21823;DHT22;11074;48.596;9.238;2023-05-20T03:59:28;11.40;99.90
21823;DHT22;11074;48.596;9.238;2023-05-20T04:01:53;11.50;99.90
21823;DHT22;11074;48.596;9.238;2023-05-20T04:04:21;11.50;99.90
21823;DHT22;11074;48.596;9.238;2023-05-20T04:06:46;11.50;99.90
21823;DHT22;11074;48.596;9.238;2023-05-20T04:09:12;11.50;99.90
21823;DHT22;11074;48.596;9.238;2023-05-20T04:11:38;11.50;99.90
21823;DHT22;11074;48.596;9.238;2023-05-20T04:14:04;11.50;99.90
21823;DHT22;11074;48.596;9.238;2023-05-20T04:16:29;11.50;99.90
21823;DHT22;11074;48.596;9.238;2023-05-20T04:18:55;11.50;99.90
21823;DHT22;11074;48.596;9.238;2023-05-20T04:21:23;11.50;99.90
21823;DHT22;11074;48.596;9.238;2023-05-20T04:23:49;11.50;99.90
21823;DHT22;11074;48.596;9.238;2023-05-20T04:26:15;11.50;99.90
21823;DHT22;11074;48.596;9.238;2023-05-20T04:28:41;11.60;99.90
21823;DHT22;11074;48.596;9.238;2023-05-20T04:31:07;11.60;99.90
21823;DHT22;11074;48.596;9.238;2023-05-20T04:33:32;11.60;99.90
21823;DHT22;11074;48.596;9.238;2023-05-20T04:36:02;11.60;99.90
21823;DHT22;11074;48.596;9.238;2023-05-20T04:38:32;11.70;99.90
21823;DHT22;11074;48.596;9.238;2023-05-20T04:40:58;11.70;99.90
21823;DHT22;11074;48.596;9.238;2023-05-20T04:43:25;11.70;99.90
21823;DHT22;11074;48.596;9.238;2023-05-20T04:45:55;11.80;99.90
21823;DHT22;11074;48.596;9.238;2023-05-20T04:48:21;11.80;99.90
21823;DHT22;11074;48.596;9.238;2023-05-20T04:50:48;11.80;99.90
21823;DHT22;11074;48.596;9.238;2023-05-20T04:53:15;11.90;99.90
21823;DHT22;11074;48.596;9.238;2023-05-20T04:55:41;11.90;99.90
21823;DHT22;11074;48.596;9.238;2023-05-20T04:58:08;12.00;99.90
21823;DHT22;11074;48.596;9.238;2023-05-20T05:00:40;12.00;99.90
21823;DHT22;11074;48.596;9.238;2023-05-20T05:03:07;12.00;99.90
21823;DHT22;11074;48.596;9.238;2023-05-20T05:05:37;12.00;99.90
21823;DHT22;11074;48.596;9.238;2023-05-20T05:08:04;12.00;99.90
21823;DHT22;11074;48.596;9.238;2023-05-20T05:10:33;12.00;99.90
21823;DHT22;11074;48.596;9.238;2023-05-20T05:12:59;11.90;99.90
21823;DHT22;11074;48.596;9.238;2023-05-20T05:15:26;11.90;99.90
21823;DHT22;11074;48.596;9.238;2023-05-20T05:17:52;12.00;99.90
21823;DHT22;11074;48.596;9.238;2023-05-20T05:20:18;12.00;99.90
21823;DHT22;11074;48.596;9.238;2023-05-20T05:22:44;12.00;99.90
21823;DHT22;11074;48.596;9.238;2023-05-20T05:25:11;12.00;99.90
21823;DHT22;11074;48.596;9.238;2023-05-20T05:27:38;12.00;99.90
21823;DHT22;11074;48.596;9.238;2023-05-20T05:30:05;12.10;99.90
21823;DHT22;11074;48.596;9.238;2023-05-20T05:32:35;12.20;99.90
21823;DHT22;11074;48.596;9.238;2023-05-20T05:35:01;12.20;99.90
21823;DHT22;11074;48.596;9.238;2023-05-20T05:37:27;12.30;99.90
21823;DHT22;11074;48.596;9.238;2023-05-20T05:39:53;12.30;99.90
21823;DHT22;11074;48.596;9.238;2023-05-20T05:42:18;12.40;99.90
21823;DHT22;11074;48.596;9.238;2023-05-20T05:44:44;12.40;99.90
21823;DHT22;11074;48.596;9.238;2023-05-20T05:47:10;12.40;99.90
21823;DHT22;11074;48.596;9.238;2023-05-20T05:49:36;12.50;99.90
21823;DHT22;11074;48.596;9.238;2023-05-20T05:52:02;12.50;99.90
21823;DHT22;11074;48.596;9.238;2023-05-20T05:54:28;12.50;99.90
21823;DHT22;11074;48.596;9.238;2023-05-20T05:56:54;12.50;99.90
21823;DHT22;11074;48.596;9.238;2023-05-20T05:59:21;12.60;99.90
21823;DHT22;11074;48.596;9.238;2023-05-20T06:01:46;12.70;99.90
21823;DHT22;11074;48.596;9.238;2023-05-20T06:04:12;12.70;99.90
21823;DHT22;11074;48.596;9.238;2023-05-20T06:06:40;12.80;99.90
21823;DHT22;11074;48.596;9.238;2023-05-20T06:09:05;12.90;99.90
21823;DHT22;11074;48.596;9.238;2023-05-20T06:11:31;12.90;99.90
21823;DHT22;11074;48.596;9.238;2023-05-20T06:13:57;13.00;99.90
21823;DHT22;11074;48.596;9.238;2023-05-20T06:16:23;13.00;99.90
21823;DHT22;11074;48.596;9.238;2023-05-20T06:18:48;13.00;99.90
21823;DHT22;11074;48.596;9.238;2023-05-20T06:21:15;13.00;99.90
21823;DHT22;11074;48.596;9.238;2023-05-20T06:23:41;13.00;99.90
21823;DHT22;11074;48.596;9.238;2023-05-20T06:26:07;13.10;99.90
21823;DHT22;11074;48.596;9.238;2023-05-20T06:28:33;13.20;99.90
21823;DHT22;11074;48.596;9.238;2023-05-20T06:30:59;13.20;99.90
21823;DHT22;11074;48.596;9.238;2023-05-20T06:33:26;13.30;99.90
21823;DHT22;11074;48.596;9.238;2023-05-20T06:35:55;13.40;99.90
21823;DHT22;11074;48.596;9.238;2023-05-20T06:38:21;13.60;99.90
21823;DHT22;11074;48.596;9.238;2023-05-20T06:40:47;13.70;99.90
21823;DHT22;11074;48.596;9.238;2023-05-20T06:43:15;13.80;99.90
21823;DHT22;11074;48.596;9.238;2023-05-20T06:45:40;13.90;99.90
21823;DHT22;11074;48.596;9.238;2023-05-20T06:48:07;14.00;99.90
21823;DHT22;11074;48.596;9.238;2023-05-20T06:50:32;14.20;99.90
21823;DHT22;11074;48.596;9.238;2023-05-20T06:52:58;14.20;99.90
21823;DHT22;11074;48.596;9.238;2023-05-20T06:55:24;14.30;99.90
21823;DHT22;11074;48.596;9.238;2023-05-20T06:57:50;14.50;99.90
21823;DHT22;11074;48.596;9.238;2023-05-20T07:00:16;14.50;99.90
21823;DHT22;11074;48.596;9.238;2023-05-20T07:02:42;14.50;99.90
21823;DHT22;11074;48.596;9.238;2023-05-20T07:05:08;14.50;99.90
21823;DHT22;11074;48.596;9.238;2023-05-20T07:07:34;14.60;99.90
21823;DHT22;11074;48.596;9.238;2023-05-20T07:10:00;14.70;99.90
21823;DHT22;11074;48.596;9.238;2023-05-20T07:12:26;14.90;99.90
21823;DHT22;11074;48.596;9.238;2023-05-20T07:14:52;15.00;99.90
21823;DHT22;11074;48.596;9.238;2023-05-20T07:17:18;15.10;99.90
21823;DHT22;11074;48.596;9.238;2023-05-20T07:19:43;15.20;99.90
21823;DHT22;11074;48.596;9.238;2023-05-20T07:22:09;15.40;99.90
21823;DHT22;11074;48.596;9.238;2023-05-20T07:24:36;15.40;99.90
21823;DHT22;11074;48.596;9.238;2023-05-20T07:27:01;15.50;99.90
21823;DHT22;11074;48.596;9.238;2023-05-20T07:29:27;15.50;99.90
21823;DHT22;11074;48.596;9.238;2023-05-20T07:31:53;15.60;99.90
21823;DHT22;11074;48.596;9.238;2023-05-20T07:34:18;15.60;99.90
21823;DHT22;11074;48.596;9.238;2023-05-20T07:36:44;15.70;99.90
21823;DHT22;11074;48.596;9.238;2023-05-20T07:39:10;15.70;99.90
21823;DHT22;11074;48.596;9.238;2023-05-20T07:41:36;15.70;99.90
21823;DHT22;11074;48.596;9.238;2023-05-20T07:44:04;15.70;99.90
21823;DHT22;11074;48.596;9.238;2023-05-20T07:46:33;15.80;99.90
21823;DHT22;11074;48.596;9.238;2023-05-20T07:48:59;15.80;99.90
21823;DHT22;11074;48.596;9.238;2023-05-20T07:51:25;15.90;99.90
21823;DHT22;11074;48.596;9.238;2023-05-20T07:53:51;16.00;99.90
21823;DHT22;11074;48.596;9.238;2023-05-20T07:56:17;15.90;99.90
21823;DHT22;11074;48.596;9.238;2023-05-20T07:58:43;16.00;99.90
21823;DHT22;11074;48.596;9.238;2023-05-20T08:01:16;16.10;99.90
21823;DHT22;11074;48.596;9.238;2023-05-20T08:03:42;16.10;99.90
21823;DHT22;11074;48.596;9.238;2023-05-20T08:06:08;16.10;99.90
21823;DHT22;11074;48.596;9.238;2023-05-20T08:08:34;16.20;99.90
21823;DHT22;11074;48.596;9.238;2023-05-20T08:11:00;16.30;99.90
21823;DHT22;11074;48.596;9.238;2023-05-20T08:13:26;16.30;99.90
21823;DHT22;11074;48.596;9.238;2023-05-20T08:15:53;16.30;99.90
21823;DHT22;11074;48.596;9.238;2023-05-20T08:18:19;16.30;99.90
21823;DHT22;11074;48.596;9.238;2023-05-20T08:20:44;16.30;99.90
21823;DHT22;11074;48.596;9.238;2023-05-20T08:23:10;16.40;99.90
21823;DHT22;11074;48.596;9.238;2023-05-20T08:25:36;16.40;99.90
21823;DHT22;11074;48.596;9.238;2023-05-20T08:28:04;16.40;99.90
21823;DHT22;11074;48.596;9.238;2023-05-20T08:30:32;16.50;99.90
21823;DHT22;11074;48.596;9.238;2023-05-20T08:32:59;16.50;99.90
21823;DHT22;11074;48.596;9.238;2023-05-20T08:35:25;16.60;99.90
21823;DHT22;11074;48.596;9.238;2023-05-20T08:37:51;16.60;99.90
21823;DHT22;11074;48.596;9.238;2023-05-20T08:40:22;16.70;99.90
21823;DHT22;11074;48.596;9.238;2023-05-20T08:42:49;16.80;99.90
21823;DHT22;11074;48.596;9.238;2023-05-20T08:45:20;16.80;99.90
21823;DHT22;11074;48.596;9.238;2023-05-20T08:47:51;16.90;99.90
21823;DHT22;11074;48.596;9.238;2023-05-20T08:50:17;17.00;99.90
21823;DHT22;11074;48.596;9.238;2023-05-20T08:52:45;17.00;99.90
21823;DHT22;11074;48.596;9.238;2023-05-20T08:55:15;17.10;99.90
21823;DHT22;11074;48.596;9.238;2023-05-20T08:57:49;17.20;99.90
21823;DHT22;11074;48.596;9.238;2023-05-20T09:00:15;17.20;99.90
21823;DHT22;11074;48.596;9.238;2023-05-20T09:02:44;17.30;99.90
21823;DHT22;11074;48.596;9.238;2023-05-20T09:05:11;17.40;99.90
21823;DHT22;11074;48.596;9.238;2023-05-20T09:07:37;17.50;99.90
21823;DHT22;11074;48.596;9.238;2023-05-20T09:10:03;17.50;99.90
21823;DHT22;11074;48.596;9.238;2023-05-20T09:12:29;17.50;99.90
21823;DHT22;11074;48.596;9.238;2023-05-20T09:14:55;17.60;99.90
21823;DHT22;11074;48.596;9.238;2023-05-20T09:17:22;17.70;99.90
21823;DHT22;11074;48.596;9.238;2023-05-20T09:19:52;17.70;99.90
21823;DHT22;11074;48.596;9.238;2023-05-20T09:22:26;17.70;99.90
21823;DHT22;11074;48.596;9.238;2023-05-20T09:24:53;17.70;99.90
21823;DHT22;11074;48.596;9.238;2023-05-20T09:27:20;17.80;99.90
21823;DHT22;11074;48.596;9.238;2023-05-20T09:29:49;17.90;99.90
21823;DHT22;11074;48.596;9.238;2023-05-20T09:32:17;17.90;99.90
21823;DHT22;11074;48.596;9.238;2023-05-20T09:34:48;17.90;99.90
21823;DHT22;11074;48.596;9.238;2023-05-20T09:37:17;18.00;99.90
21823;DHT22;11074;48.596;9.238;2023-05-20T09:40:02;18.10;99.90
21823;DHT22;11074;48.596;9.238;2023-05-20T09:42:53;18.00;99.90
21823;DHT22;11074;48.596;9.238;2023-05-20T09:45:21;17.90;99.90
21823;DHT22;11074;48.596;9.238;2023-05-20T09:47:50;18.00;99.90
21823;DHT22;11074;48.596;9.238;2023-05-20T09:50:18;18.10;99.90
21823;DHT22;11074;48.596;9.238;2023-05-20T09:52:47;18.20;99.90
21823;DHT22;11074;48.596;9.238;2023-05-20T09:55:18;18.20;99.90
21823;DHT22;11074;48.596;9.238;2023-05-20T09:57:46;18.30;99.90
21823;DHT22;11074;48.596;9.238;2023-05-20T10:00:13;18.40;99.90
21823;DHT22;11074;48.596;9.238;2023-05-20T10:02:46;18.40;99.90
21823;DHT22;11074;48.596;9.238;2023-05-20T10:05:24;18.40;99.90
21823;DHT22;11074;48.596;9.238;2023-05-20T10:13:55;18.60;99.90
21823;DHT22;11074;48.596;9.238;2023-05-20T10:21:41;19.00;99.90
21823;DHT22;11074;48.596;9.238;2023-05-20T10:24:07;19.30;99.90
21823;DHT22;11074;48.596;9.238;2023-05-20T10:26:39;19.30;99.90
21823;DHT22;11074;48.596;9.238;2023-05-20T10:31:49;19.30;99.90
21823;DHT22;11074;48.596;9.238;2023-05-20T10:34:17;19.40;99.90
21823;DHT22;11074;48.596;9.238;2023-05-20T10:36:57;19.50;99.90
21823;DHT22;11074;48.596;9.238;2023-05-20T10:39:31;19.60;99.90
21823;DHT22;11074;48.596;9.238;2023-05-20T10:42:09;19.90;99.90
21823;DHT22;11074;48.596;9.238;2023-05-20T10:44:46;20.10;99.90
21823;DHT22;11074;48.596;9.238;2023-05-20T10:47:12;20.10;99.90
21823;DHT22;11074;48.596;9.238;2023-05-20T10:49:45;20.10;99.90
21823;DHT22;11074;48.596;9.238;2023-05-20T10:52:16;20.20;99.90
21823;DHT22;11074;48.596;9.238;2023-05-20T10:54:47;20.30;99.90
21823;DHT22;11074;48.596;9.238;2023-05-20T10:57:20;20.50;99.90
21823;DHT22;11074;48.596;9.238;2023-05-20T10:59:47;20.40;99.90
21823;DHT22;11074;48.596;9.238;2023-05-20T11:02:18;20.50;99.90
21823;DHT22;11074;48.596;9.238;2023-05-20T11:04:48;20.70;99.90
21823;DHT22;11074;48.596;9.238;2023-05-20T11:07:27;20.80;99.90
21823;DHT22;11074;48.596;9.238;2023-05-20T11:09:57;21.00;99.90
21823;DHT22;11074;48.596;9.238;2023-05-20T11:12:25;21.00;99.90
21823;DHT22;11074;48.596;9.238;2023-05-20T11:14:52;21.10;99.90
21823;DHT22;11074;48.596;9.238;2023-05-20T11:17:18;21.10;99.90
21823;DHT22;11074;48.596;9.238;2023-05-20T11:19:48;21.30;99.90
21823;DHT22;11074;48.596;9.238;2023-05-20T11:22:15;21.40;99.90
21823;DHT22;11074;48.596;9.238;2023-05-20T11:24:40;21.60;99.90
21823;DHT22;11074;48.596;9.238;2023-05-20T11:27:06;21.80;99.90
21823;DHT22;11074;48.596;9.238;2023-05-20T11:29:32;22.10;99.90
21823;DHT22;11074;48.596;9.238;2023-05-20T11:31:59;22.40;99.90
21823;DHT22;11074;48.596;9.238;2023-05-20T11:34:31;22.50;99.90
21823;DHT22;11074;48.596;9.238;2023-05-20T11:36:59;22.30;99.90
21823;DHT22;11074;48.596;9.238;2023-05-20T11:39:28;22.10;99.90
21823;DHT22;11074;48.596;9.238;2023-05-20T11:41:55;22.20;99.90
21823;DHT22;11074;48.596;9.238;2023-05-20T11:44:22;22.10;99.90
21823;DHT22;11074;48.596;9.238;2023-05-20T11:46:48;22.00;99.90
21823;DHT22;11074;48.596;9.238;2023-05-20T11:49:15;22.00;99.90
21823;DHT22;11074;48.596;9.238;2023-05-20T11:51:42;22.10;99.90
21823;DHT22;11074;48.596;9.238;2023-05-20T11:54:09;22.00;99.90
21823;DHT22;11074;48.596;9.238;2023-05-20T11:56:38;21.60;99.90
21823;DHT22;11074;48.596;9.238;2023-05-20T11:59:08;21.40;99.90
21823;DHT22;11074;48.596;9.238;2023-05-20T12:01:39;21.30;99.90
21823;DHT22;11074;48.596;9.238;2023-05-20T12:04:09;21.40;99.90
21823;DHT22;11074;48.596;9.238;2023-05-20T12:06:35;21.60;99.90
21823;DHT22;11074;48.596;9.238;2023-05-20T12:09:05;21.60;99.90
21823;DHT22;11074;48.596;9.238;2023-05-20T12:11:35;22.00;99.90
21823;DHT22;11074;48.596;9.238;2023-05-20T12:14:05;22.10;99.90
21823;DHT22;11074;48.596;9.238;2023-05-20T12:16:32;22.00;99.90
21823;DHT22;11074;48.596;9.238;2023-05-20T12:18:59;22.00;99.90
21823;DHT22;11074;48.596;9.238;2023-05-20T12:21:25;21.80;99.90
21823;DHT22;11074;48.596;9.238;2023-05-20T12:23:51;21.70;99.90
21823;DHT22;11074;48.596;9.238;2023-05-20T12:26:25;21.80;99.90
21823;DHT22;11074;48.596;9.238;2023-05-20T12:28:52;22.00;99.90
21823;DHT22;11074;48.596;9.238;2023-05-20T12:31:18;22.40;99.90
21823;DHT22;11074;48.596;9.238;2023-05-20T12:33:44;22.70;99.90
21823;DHT22;11074;48.596;9.238;2023-05-20T12:36:10;23.10;99.90
21823;DHT22;11074;48.596;9.238;2023-05-20T12:38:35;23.40;99.90
21823;DHT22;11074;48.596;9.238;2023-05-20T12:41:01;23.50;99.90
21823;DHT22;11074;48.596;9.238;2023-05-20T12:43:27;23.60;99.90
21823;DHT22;11074;48.596;9.238;2023-05-20T12:45:53;23.80;99.90
21823;DHT22;11074;48.596;9.238;2023-05-20T12:48:18;24.00;99.90
21823;DHT22;11074;48.596;9.238;2023-05-20T12:50:44;24.30;99.90
21823;DHT22;11074;48.596;9.238;2023-05-20T12:53:10;24.50;99.90
21823;DHT22;11074;48.596;9.238;2023-05-20T12:55:36;24.40;99.90
21823;DHT22;11074;48.596;9.238;2023-05-20T12:58:02;24.30;99.90
21823;DHT22;11074;48.596;9.238;2023-05-20T13:00:28;24.30;99.90
21823;DHT22;11074;48.596;9.238;2023-05-20T13:02:54;24.20;99.90
21823;DHT22;11074;48.596;9.238;2023-05-20T13:05:19;24.00;99.90
21823;DHT22;11074;48.596;9.238;2023-05-20T13:07:46;23.70;99.90
21823;DHT22;11074;48.596;9.238;2023-05-20T13:10:13;23.50;99.90
21823;DHT22;11074;48.596;9.238;2023-05-20T13:12:39;23.50;99.90
21823;DHT22;11074;48.596;9.238;2023-05-20T13:15:10;23.30;99.90
21823;DHT22;11074;48.596;9.238;2023-05-20T13:17:39;23.10;99.90
21823;DHT22;11074;48.596;9.238;2023-05-20T13:20:07;23.00;99.90
21823;DHT22;11074;48.596;9.238;2023-05-20T13:22:33;23.00;99.90
21823;DHT22;11074;48.596;9.238;2023-05-20T13:25:00;22.80;99.90
21823;DHT22;11074;48.596;9.238;2023-05-20T13:27:25;23.00;99.90
21823;DHT22;11074;48.596;9.238;2023-05-20T13:29:51;23.00;99.90
21823;DHT22;11074;48.596;9.238;2023-05-20T13:32:17;22.90;99.90
21823;DHT22;11074;48.596;9.238;2023-05-20T13:34:43;23.00;99.90
21823;DHT22;11074;48.596;9.238;2023-05-20T13:37:09;23.10;99.90
21823;DHT22;11074;48.596;9.238;2023-05-20T13:39:34;23.40;99.90
21823;DHT22;11074;48.596;9.238;2023-05-20T13:42:00;23.60;99.90
21823;DHT22;11074;48.596;9.238;2023-05-20T13:44:26;23.80;99.90
21823;DHT22;11074;48.596;9.238;2023-05-20T13:46:52;24.20;99.90
21823;DHT22;11074;48.596;9.238;2023-05-20T13:49:17;24.40;99.90
21823;DHT22;11074;48.596;9.238;2023-05-20T13:51:43;24.70;99.90
21823;DHT22;11074;48.596;9.238;2023-05-20T13:54:10;24.90;99.90
21823;DHT22;11074;48.596;9.238;2023-05-20T13:56:36;25.10;99.90
21823;DHT22;11074;48.596;9.238;2023-05-20T13:59:02;25.30;99.90
21823;DHT22;11074;48.596;9.238;2023-05-20T14:01:29;25.30;99.90
21823;DHT22;11074;48.596;9.238;2023-05-20T14:03:57;25.40;99.90
21823;DHT22;11074;48.596;9.238;2023-05-20T14:06:24;25.40;99.90
21823;DHT22;11074;48.596;9.238;2023-05-20T14:08:53;25.40;99.90
21823;DHT22;11074;48.596;9.238;2023-05-20T14:11:20;25.50;99.90
21823;DHT22;11074;48.596;9.238;2023-05-20T14:13:46;25.60;99.90
21823;DHT22;11074;48.596;9.238;2023-05-20T14:16:12;25.50;99.90
21823;DHT22;11074;48.596;9.238;2023-05-20T14:18:38;25.50;99.90
21823;DHT22;11074;48.596;9.238;2023-05-20T14:21:03;25.40;99.90
21823;DHT22;11074;48.596;9.238;2023-05-20T14:23:29;25.10;99.90
21823;DHT22;11074;48.596;9.238;2023-05-20T14:25:55;24.90;99.90
21823;DHT22;11074;48.596;9.238;2023-05-20T14:28:21;24.70;99.90
21823;DHT22;11074;48.596;9.238;2023-05-20T14:30:46;24.60;99.90
21823;DHT22;11074;48.596;9.238;2023-05-20T14:33:12;24.60;99.90
21823;DHT22;11074;48.596;9.238;2023-05-20T14:35:37;24.60;99.90
21823;DHT22;11074;48.596;9.238;2023-05-20T14:38:03;24.60;99.90
21823;DHT22;11074;48.596;9.238;2023-05-20T14:40:29;24.60;99.90
21823;DHT22;11074;48.596;9.238;2023-05-20T14:42:54;24.80;99.90
21823;DHT22;11074;48.596;9.238;2023-05-20T14:45:20;24.90;99.90
21823;DHT22;11074;48.596;9.238;2023-05-20T14:47:47;24.90;99.90
21823;DHT22;11074;48.596;9.238;2023-05-20T14:50:12;25.10;99.90
21823;DHT22;11074;48.596;9.238;2023-05-20T14:52:38;25.10;99.90
21823;DHT22;11074;48.596;9.238;2023-05-20T14:55:04;25.10;99.90
21823;DHT22;11074;48.596;9.238;2023-05-20T14:57:30;25.10;99.90
21823;DHT22;11074;48.596;9.238;2023-05-20T14:59:55;25.20;99.90
21823;DHT22;11074;48.596;9.238;2023-05-20T15:02:21;25.40;99.90
21823;DHT22;11074;48.596;9.238;2023-05-20T15:04:47;25.50;99.90
21823;DHT22;11074;48.596;9.238;2023-05-20T15:07:13;25.60;99.90
21823;DHT22;11074;48.596;9.238;2023-05-20T15:09:39;25.50;99.90
21823;DHT22;11074;48.596;9.238;2023-05-20T15:12:05;25.30;99.90
21823;DHT22;11074;48.596;9.238;2023-05-20T15:14:31;25.20;99.90
21823;DHT22;11074;48.596;9.238;2023-05-20T15:16:57;25.20;99.90
21823;DHT22;11074;48.596;9.238;2023-05-20T15:19:23;25.20;99.90
21823;DHT22;11074;48.596;9.238;2023-05-20T15:21:48;25.30;99.90
21823;DHT22;11074;48.596;9.238;2023-05-20T15:24:16;25.50;99.90
21823;DHT22;11074;48.596;9.238;2023-05-20T15:26:42;25.70;99.90
21823;DHT22;11074;48.596;9.238;2023-05-20T15:29:08;26.10;99.90
21823;DHT22;11074;48.596;9.238;2023-05-20T15:31:34;26.40;99.90
21823;DHT22;11074;48.596;9.238;2023-05-20T15:33:59;26.60;99.90
21823;DHT22;11074;48.596;9.238;2023-05-20T15:36:25;26.80;99.90
21823;DHT22;11074;48.596;9.238;2023-05-20T15:38:51;26.90;99.90
21823;DHT22;11074;48.596;9.238;2023-05-20T15:41:16;26.90;99.90
21823;DHT22;11074;48.596;9.238;2023-05-20T15:43:42;26.60;99.90